sensor_id;sensor_type;location;lat;lon;timestamp;temperature;humidity
57652;DHT22;43480;53.116;6.734;2022-07-12T00:00:53;16.00;99.90
57652;DHT22;43480;53.116;6.734;2022-07-12T00:03:19;16.00;99.90
57652;DHT22;43480;53.116;6.734;2022-07-12T00:05:44;16.00;99.90
57652;DHT22;43480;53.116;6.734;2022-07-12T00:08:10;16.00;99.90
57652;DHT22;43480;53.116;6.734;2022-07-12T00:10:35;16.00;99.90
57652;DHT22;43480;53.116;6.734;2022-07-12T00:13:01;15.90;99.90
57652;DHT22;43480;53.116;6.734;2022-07-12T00:15:27;16.00;99.90
57652;DHT22;43480;53.116;6.734;2022-07-12T00:17:52;15.90;99.90
57652;DHT22;43480;53.116;6.734;2022-07-12T00:20:18;15.90;99.90
57652;DHT22;43480;53.116;6.734;2022-07-12T00:22:43;15.90;99.90
57652;DHT22;43480;53.116;6.734;2022-07-12T00:25:09;15.90;99.90
57652;DHT22;43480;53.116;6.734;2022-07-12T00:27:34;15.90;99.90
57652;DHT22;43480;53.116;6.734;2022-07-12T00:30:00;15.90;99.90
57652;DHT22;43480;53.116;6.734;2022-07-12T00:32:26;15.90;99.90
57652;DHT22;43480;53.116;6.734;2022-07-12T00:34:51;15.90;99.90
57652;DHT22;43480;53.116;6.734;2022-07-12T00:37:17;15.90;99.90
57652;DHT22;43480;53.116;6.734;2022-07-12T00:39:42;15.80;99.90
57652;DHT22;43480;53.116;6.734;2022-07-12T00:42:08;15.80;99.90
57652;DHT22;43480;53.116;6.734;2022-07-12T00:44:33;15.80;99.90
57652;DHT22;43480;53.116;6.734;2022-07-12T00:47:02;15.80;99.90
57652;DHT22;43480;53.116;6.734;2022-07-12T00:49:28;15.80;99.90
57652;DHT22;43480;53.116;6.734;2022-07-12T00:51:54;15.80;99.90
57652;DHT22;43480;53.116;6.734;2022-07-12T00:54:20;15.80;99.90
57652;DHT22;43480;53.116;6.734;2022-07-12T00:56:46;15.70;99.90
57652;DHT22;43480;53.116;6.734;2022-07-12T00:59:11;15.70;99.90
57652;DHT22;43480;53.116;6.734;2022-07-12T01:01:37;15.70;99.90
57652;DHT22;43480;53.116;6.734;2022-07-12T01:04:03;15.70;99.90
57652;DHT22;43480;53.116;6.734;2022-07-12T01:06:29;15.70;99.90
57652;DHT22;43480;53.116;6.734;2022-07-12T01:08:56;15.70;99.90
57652;DHT22;43480;53.116;6.734;2022-07-12T01:11:21;15.70;99.90
57652;DHT22;43480;53.116;6.734;2022-07-12T01:13:47;15.60;99.90
57652;DHT22;43480;53.116;6.734;2022-07-12T01:16:13;15.60;99.90
57652;DHT22;43480;53.116;6.734;2022-07-12T01:18:39;15.60;99.90
57652;DHT22;43480;53.116;6.734;2022-07-12T01:21:05;15.60;99.90
57652;DHT22;43480;53.116;6.734;2022-07-12T01:23:32;15.60;99.90
57652;DHT22;43480;53.116;6.734;2022-07-12T01:25:59;15.60;99.90
57652;DHT22;43480;53.116;6.734;2022-07-12T01:28:25;15.60;99.90
57652;DHT22;43480;53.116;6.734;2022-07-12T01:30:50;15.70;99.90
57652;DHT22;43480;53.116;6.734;2022-07-12T01:33:16;15.60;99.90
57652;DHT22;43480;53.116;6.734;2022-07-12T01:35:42;15.60;99.90
57652;DHT22;43480;53.116;6.734;2022-07-12T01:38:08;15.60;99.90
57652;DHT22;43480;53.116;6.734;2022-07-12T01:40:33;15.60;99.90
57652;DHT22;43480;53.116;6.734;2022-07-12T01:43:01;15.70;99.90
57652;DHT22;43480;53.116;6.734;2022-07-12T01:45:27;15.60;99.90
57652;DHT22;43480;53.116;6.734;2022-07-12T01:47:52;15.60;99.90
57652;DHT22;43480;53.116;6.734;2022-07-12T01:50:18;15.60;99.90
57652;DHT22;43480;53.116;6.734;2022-07-12T01:52:43;15.60;99.90
57652;DHT22;43480;53.116;6.734;2022-07-12T01:55:09;15.60;99.90
57652;DHT22;43480;53.116;6.734;2022-07-12T01:57:35;15.60;99.90
57652;DHT22;43480;53.116;6.734;2022-07-12T02:00:03;15.60;99.90
57652;DHT22;43480;53.116;6.734;2022-07-12T02:02:30;15.60;99.90
57652;DHT22;43480;53.116;6.734;2022-07-12T02:04:56;15.60;99.90
57652;DHT22;43480;53.116;6.734;2022-07-12T02:07:23;15.60;99.90
57652;DHT22;43480;53.116;6.734;2022-07-12T02:09:49;15.50;99.90
57652;DHT22;43480;53.116;6.734;2022-07-12T02:12:14;15.50;99.90
57652;DHT22;43480;53.116;6.734;2022-07-12T02:14:39;15.50;99.90
57652;DHT22;43480;53.116;6.734;2022-07-12T02:17:05;15.50;99.90
57652;DHT22;43480;53.116;6.734;2022-07-12T02:19:30;15.60;99.90
57652;DHT22;43480;53.116;6.734;2022-07-12T02:21:56;15.50;99.90
57652;DHT22;43480;53.116;6.734;2022-07-12T02:24:22;15.50;99.90
57652;DHT22;43480;53.116;6.734;2022-07-12T02:26:47;15.50;99.90
57652;DHT22;43480;53.116;6.734;2022-07-12T02:29:13;15.50;99.90
57652;DHT22;43480;53.116;6.734;2022-07-12T02:31:38;15.50;99.90
57652;DHT22;43480;53.116;6.734;2022-07-12T02:34:04;15.50;99.90
57652;DHT22;43480;53.116;6.734;2022-07-12T02:36:30;15.50;99.90
57652;DHT22;43480;53.116;6.734;2022-07-12T02:38:56;15.50;99.90
57652;DHT22;43480;53.116;6.734;2022-07-12T02:41:21;15.50;99.90
57652;DHT22;43480;53.116;6.734;2022-07-12T02:43:47;15.50;99.90
57652;DHT22;43480;53.116;6.734;2022-07-12T02:46:12;15.50;99.90
57652;DHT22;43480;53.116;6.734;2022-07-12T02:48:39;15.40;99.90
57652;DHT22;43480;53.116;6.734;2022-07-12T02:51:05;15.40;99.90
57652;DHT22;43480;53.116;6.734;2022-07-12T02:53:31;15.40;99.90
57652;DHT22;43480;53.116;6.734;2022-07-12T02:55:57;15.40;99.90
57652;DHT22;43480;53.116;6.734;2022-07-12T02:58:23;15.40;99.90
57652;DHT22;43480;53.116;6.734;2022-07-12T03:00:48;15.40;99.90
57652;DHT22;43480;53.116;6.734;2022-07-12T03:03:14;15.40;99.90
57652;DHT22;43480;53.116;6.734;2022-07-12T03:05:40;15.40;99.90
57652;DHT22;43480;53.116;6.734;2022-07-12T03:08:06;15.40;99.90
57652;DHT22;43480;53.116;6.734;2022-07-12T03:10:32;15.40;99.90
57652;DHT22;43480;53.116;6.734;2022-07-12T03:12:57;15.40;99.90
57652;DHT22;43480;53.116;6.734;2022-07-12T03:15:23;15.40;99.90
57652;DHT22;43480;53.116;6.734;2022-07-12T03:17:48;15.30;99.90
57652;DHT22;43480;53.116;6.734;2022-07-12T03:20:14;15.30;99.90
57652;DHT22;43480;53.116;6.734;2022-07-12T03:22:43;15.30;99.90
57652;DHT22;43480;53.116;6.734;2022-07-12T03:25:12;15.30;99.90
57652;DHT22;43480;53.116;6.734;2022-07-12T03:27:38;15.30;99.90
57652;DHT22;43480;53.116;6.734;2022-07-12T03:30:03;15.30;99.90
57652;DHT22;43480;53.116;6.734;2022-07-12T03:32:29;15.20;99.90
57652;DHT22;43480;53.116;6.734;2022-07-12T03:34:54;15.20;99.90
57652;DHT22;43480;53.116;6.734;2022-07-12T03:37:20;15.20;99.90
57652;DHT22;43480;53.116;6.734;2022-07-12T03:39:45;15.30;99.90
57652;DHT22;43480;53.116;6.734;2022-07-12T03:42:11;15.30;99.90
57652;DHT22;43480;53.116;6.734;2022-07-12T03:44:37;15.30;99.90
57652;DHT22;43480;53.116;6.734;2022-07-12T03:47:03;15.30;99.90
57652;DHT22;43480;53.116;6.734;2022-07-12T03:49:29;15.20;99.90
57652;DHT22;43480;53.116;6.734;2022-07-12T03:51:54;15.20;99.90
57652;DHT22;43480;53.116;6.734;2022-07-12T03:54:20;15.20;99.90
57652;DHT22;43480;53.116;6.734;2022-07-12T03:56:45;15.20;99.90
57652;DHT22;43480;53.116;6.734;2022-07-12T03:59:30;15.20;99.90
57652;DHT22;43480;53.116;6.734;2022-07-12T04:01:56;15.20;99.90
57652;DHT22;43480;53.116;6.734;2022-07-12T04:04:21;15.20;99.90
57652;DHT22;43480;53.116;6.734;2022-07-12T04:06:47;15.30;99.90
57652;DHT22;43480;53.116;6.734;2022-07-12T04:09:12;15.20;99.90
57652;DHT22;43480;53.116;6.734;2022-07-12T04:11:38;15.30;99.90
57652;DHT22;43480;53.116;6.734;2022-07-12T04:14:03;15.30;99.90
57652;DHT22;43480;53.116;6.734;2022-07-12T04:16:29;15.20;99.90
57652;DHT22;43480;53.116;6.734;2022-07-12T04:18:57;15.20;99.90
57652;DHT22;43480;53.116;6.734;2022-07-12T04:21:23;15.10;99.90
57652;DHT22;43480;53.116;6.734;2022-07-12T04:23:49;15.10;99.90
57652;DHT22;43480;53.116;6.734;2022-07-12T04:26:14;15.10;99.90
57652;DHT22;43480;53.116;6.734;2022-07-12T04:28:40;15.10;99.90
57652;DHT22;43480;53.116;6.734;2022-07-12T04:31:06;15.00;99.90
57652;DHT22;43480;53.116;6.734;2022-07-12T04:33:32;15.10;99.90
57652;DHT22;43480;53.116;6.734;2022-07-12T04:35:58;15.10;99.90
57652;DHT22;43480;53.116;6.734;2022-07-12T04:38:23;15.10;99.90
57652;DHT22;43480;53.116;6.734;2022-07-12T04:40:49;15.00;99.90
57652;DHT22;43480;53.116;6.734;2022-07-12T04:43:14;15.10;99.90
57652;DHT22;43480;53.116;6.734;2022-07-12T04:45:40;15.00;99.90
57652;DHT22;43480;53.116;6.734;2022-07-12T04:48:12;15.10;99.90
57652;DHT22;43480;53.116;6.734;2022-07-12T04:50:38;15.10;99.90
57652;DHT22;43480;53.116;6.734;2022-07-12T04:53:03;15.10;99.90
57652;DHT22;43480;53.116;6.734;2022-07-12T04:55:29;15.20;99.90
57652;DHT22;43480;53.116;6.734;2022-07-12T04:57:54;15.30;99.90
57652;DHT22;43480;53.116;6.734;2022-07-12T05:00:20;15.30;99.90
57652;DHT22;43480;53.116;6.734;2022-07-12T05:02:46;15.30;99.90
57652;DHT22;43480;53.116;6.734;2022-07-12T05:05:12;15.20;99.90
57652;DHT22;43480;53.116;6.734;2022-07-12T05:07:37;15.30;99.90
57652;DHT22;43480;53.116;6.734;2022-07-12T05:10:03;15.20;99.90
57652;DHT22;43480;53.116;6.734;2022-07-12T05:12:29;15.30;99.90
57652;DHT22;43480;53.116;6.734;2022-07-12T05:14:54;15.30;99.90
57652;DHT22;43480;53.116;6.734;2022-07-12T05:17:20;15.20;99.90
57652;DHT22;43480;53.116;6.734;2022-07-12T05:19:45;15.20;99.90
57652;DHT22;43480;53.116;6.734;2022-07-12T05:22:11;15.20;99.90
57652;DHT22;43480;53.116;6.734;2022-07-12T05:24:36;15.20;99.90
57652;DHT22;43480;53.116;6.734;2022-07-12T05:27:02;15.10;99.90
57652;DHT22;43480;53.116;6.734;2022-07-12T05:29:27;15.20;99.90
57652;DHT22;43480;53.116;6.734;2022-07-12T05:31:56;15.20;99.90
57652;DHT22;43480;53.116;6.734;2022-07-12T05:34:22;15.20;99.90
57652;DHT22;43480;53.116;6.734;2022-07-12T05:36:48;15.20;99.90
57652;DHT22;43480;53.116;6.734;2022-07-12T05:39:13;15.30;99.90
57652;DHT22;43480;53.116;6.734;2022-07-12T05:41:39;15.40;99.90
57652;DHT22;43480;53.116;6.734;2022-07-12T05:44:04;15.50;99.90
57652;DHT22;43480;53.116;6.734;2022-07-12T05:46:30;15.50;99.90
57652;DHT22;43480;53.116;6.734;2022-07-12T05:48:56;15.60;99.90
57652;DHT22;43480;53.116;6.734;2022-07-12T05:51:21;15.60;99.90
57652;DHT22;43480;53.116;6.734;2022-07-12T05:54:06;15.70;99.90
57652;DHT22;43480;53.116;6.734;2022-07-12T05:56:31;15.80;99.90
57652;DHT22;43480;53.116;6.734;2022-07-12T05:58:57;15.80;99.90
57652;DHT22;43480;53.116;6.734;2022-07-12T06:01:23;15.90;99.90
57652;DHT22;43480;53.116;6.734;2022-07-12T06:03:48;16.00;99.90
57652;DHT22;43480;53.116;6.734;2022-07-12T06:06:14;16.00;99.90
57652;DHT22;43480;53.116;6.734;2022-07-12T06:08:39;16.10;99.90
57652;DHT22;43480;53.116;6.734;2022-07-12T06:11:05;16.20;99.90
57652;DHT22;43480;53.116;6.734;2022-07-12T06:13:31;16.30;99.90
57652;DHT22;43480;53.116;6.734;2022-07-12T06:15:56;16.40;99.90
57652;DHT22;43480;53.116;6.734;2022-07-12T06:18:22;16.50;99.90
57652;DHT22;43480;53.116;6.734;2022-07-12T06:20:47;16.50;99.90
57652;DHT22;43480;53.116;6.734;2022-07-12T06:23:14;16.60;99.90
57652;DHT22;43480;53.116;6.734;2022-07-12T06:25:40;16.70;99.90
57652;DHT22;43480;53.116;6.734;2022-07-12T06:28:06;16.70;99.90
57652;DHT22;43480;53.116;6.734;2022-07-12T06:30:31;16.80;99.90
57652;DHT22;43480;53.116;6.734;2022-07-12T06:32:57;16.80;99.90
57652;DHT22;43480;53.116;6.734;2022-07-12T06:35:22;16.80;99.90
57652;DHT22;43480;53.116;6.734;2022-07-12T06:37:48;16.80;99.90
57652;DHT22;43480;53.116;6.734;2022-07-12T06:40:13;16.90;99.90
57652;DHT22;43480;53.116;6.734;2022-07-12T06:42:42;16.90;99.90
57652;DHT22;43480;53.116;6.734;2022-07-12T06:45:08;16.90;99.90
57652;DHT22;43480;53.116;6.734;2022-07-12T06:47:34;16.90;99.90
57652;DHT22;43480;53.116;6.734;2022-07-12T06:50:00;16.90;99.90
57652;DHT22;43480;53.116;6.734;2022-07-12T06:52:28;16.90;99.90
57652;DHT22;43480;53.116;6.734;2022-07-12T06:54:54;17.00;99.90
57652;DHT22;43480;53.116;6.734;2022-07-12T06:57:19;17.10;99.90
57652;DHT22;43480;53.116;6.734;2022-07-12T06:59:45;17.10;99.90
57652;DHT22;43480;53.116;6.734;2022-07-12T07:02:10;17.10;99.90
57652;DHT22;43480;53.116;6.734;2022-07-12T07:04:36;17.20;99.90
57652;DHT22;43480;53.116;6.734;2022-07-12T07:07:01;17.20;99.90
57652;DHT22;43480;53.116;6.734;2022-07-12T07:09:27;17.30;99.90
57652;DHT22;43480;53.116;6.734;2022-07-12T07:11:53;17.30;99.90
57652;DHT22;43480;53.116;6.734;2022-07-12T07:14:18;17.30;99.90
57652;DHT22;43480;53.116;6.734;2022-07-12T07:16:44;17.40;99.90
57652;DHT22;43480;53.116;6.734;2022-07-12T07:19:10;17.50;99.90
57652;DHT22;43480;53.116;6.734;2022-07-12T07:21:35;17.60;99.90
57652;DHT22;43480;53.116;6.734;2022-07-12T07:24:01;17.60;99.90
57652;DHT22;43480;53.116;6.734;2022-07-12T07:26:27;17.60;99.90
57652;DHT22;43480;53.116;6.734;2022-07-12T07:28:52;17.70;99.90
57652;DHT22;43480;53.116;6.734;2022-07-12T07:31:53;17.70;99.90
57652;DHT22;43480;53.116;6.734;2022-07-12T07:34:19;17.80;99.90
57652;DHT22;43480;53.116;6.734;2022-07-12T07:36:44;17.90;99.90
57652;DHT22;43480;53.116;6.734;2022-07-12T07:39:10;18.00;99.90
57652;DHT22;43480;53.116;6.734;2022-07-12T07:41:37;18.20;99.90
57652;DHT22;43480;53.116;6.734;2022-07-12T07:44:03;18.30;99.90
57652;DHT22;43480;53.116;6.734;2022-07-12T07:46:28;18.50;99.90
57652;DHT22;43480;53.116;6.734;2022-07-12T07:48:54;18.70;99.90
57652;DHT22;43480;53.116;6.734;2022-07-12T07:51:19;18.80;99.90
57652;DHT22;43480;53.116;6.734;2022-07-12T07:53:45;18.80;99.90
57652;DHT22;43480;53.116;6.734;2022-07-12T07:56:10;18.90;99.90
57652;DHT22;43480;53.116;6.734;2022-07-12T07:58:36;19.00;99.90
57652;DHT22;43480;53.116;6.734;2022-07-12T08:01:01;19.10;99.90
57652;DHT22;43480;53.116;6.734;2022-07-12T08:03:27;19.20;99.90
57652;DHT22;43480;53.116;6.734;2022-07-12T08:05:52;19.40;99.90
57652;DHT22;43480;53.116;6.734;2022-07-12T08:08:18;19.60;99.90
57652;DHT22;43480;53.116;6.734;2022-07-12T08:10:44;19.80;99.90
57652;DHT22;43480;53.116;6.734;2022-07-12T08:13:09;19.90;99.90
57652;DHT22;43480;53.116;6.734;2022-07-12T08:15:35;20.00;99.90
57652;DHT22;43480;53.116;6.734;2022-07-12T08:18:00;20.10;99.90
57652;DHT22;43480;53.116;6.734;2022-07-12T08:20:26;20.30;99.90
57652;DHT22;43480;53.116;6.734;2022-07-12T08:22:51;20.50;99.90
57652;DHT22;43480;53.116;6.734;2022-07-12T08:25:17;20.70;99.90
57652;DHT22;43480;53.116;6.734;2022-07-12T08:27:42;21.00;99.90
57652;DHT22;43480;53.116;6.734;2022-07-12T08:30:08;21.10;99.90
57652;DHT22;43480;53.116;6.734;2022-07-12T08:32:34;21.30;99.90
57652;DHT22;43480;53.116;6.734;2022-07-12T08:34:59;21.50;99.90
57652;DHT22;43480;53.116;6.734;2022-07-12T08:37:25;21.60;99.90
57652;DHT22;43480;53.116;6.734;2022-07-12T08:39:51;21.60;99.90
57652;DHT22;43480;53.116;6.734;2022-07-12T08:42:16;21.60;99.90
57652;DHT22;43480;53.116;6.734;2022-07-12T08:44:43;21.60;99.90
57652;DHT22;43480;53.116;6.734;2022-07-12T08:47:08;21.60;99.90
57652;DHT22;43480;53.116;6.734;2022-07-12T08:49:35;21.60;99.90
57652;DHT22;43480;53.116;6.734;2022-07-12T08:52:02;21.60;99.90
57652;DHT22;43480;53.116;6.734;2022-07-12T08:54:42;21.60;99.90
57652;DHT22;43480;53.116;6.734;2022-07-12T08:57:08;21.70;99.90
57652;DHT22;43480;53.116;6.734;2022-07-12T08:59:33;21.80;99.90
57652;DHT22;43480;53.116;6.734;2022-07-12T09:01:59;21.80;99.90
57652;DHT22;43480;53.116;6.734;2022-07-12T09:04:25;21.80;99.90
57652;DHT22;43480;53.116;6.734;2022-07-12T09:06:52;21.80;99.90
57652;DHT22;43480;53.116;6.734;2022-07-12T09:09:33;21.90;99.90
57652;DHT22;43480;53.116;6.734;2022-07-12T09:12:00;22.00;99.90
57652;DHT22;43480;53.116;6.734;2022-07-12T09:14:26;22.10;99.90
57652;DHT22;43480;53.116;6.734;2022-07-12T09:17:04;22.20;99.90
57652;DHT22;43480;53.116;6.734;2022-07-12T09:19:34;22.30;99.90
57652;DHT22;43480;53.116;6.734;2022-07-12T09:22:00;22.40;99.90
57652;DHT22;43480;53.116;6.734;2022-07-12T09:24:26;22.50;99.90
57652;DHT22;43480;53.116;6.734;2022-07-12T09:27:00;22.60;99.90
57652;DHT22;43480;53.116;6.734;2022-07-12T09:29:26;22.80;99.90
57652;DHT22;43480;53.116;6.734;2022-07-12T09:31:51;22.90;99.90
57652;DHT22;43480;53.116;6.734;2022-07-12T09:34:35;23.10;99.90
57652;DHT22;43480;53.116;6.734;2022-07-12T09:37:20;23.20;99.90
57652;DHT22;43480;53.116;6.734;2022-07-12T09:39:46;23.30;99.90
57652;DHT22;43480;53.116;6.734;2022-07-12T09:42:12;23.40;99.90
57652;DHT22;43480;53.116;6.734;2022-07-12T09:44:39;23.50;99.90
57652;DHT22;43480;53.116;6.734;2022-07-12T09:47:11;23.50;99.90
57652;DHT22;43480;53.116;6.734;2022-07-12T09:49:47;23.60;99.90
57652;DHT22;43480;53.116;6.734;2022-07-12T09:52:15;23.70;99.90
57652;DHT22;43480;53.116;6.734;2022-07-12T09:54:45;23.70;99.90
57652;DHT22;43480;53.116;6.734;2022-07-12T09:57:19;23.80;99.90
57652;DHT22;43480;53.116;6.734;2022-07-12T09:59:45;23.80;99.90
57652;DHT22;43480;53.116;6.734;2022-07-12T10:02:12;23.90;99.90
57652;DHT22;43480;53.116;6.734;2022-07-12T10:04:40;23.90;99.90
57652;DHT22;43480;53.116;6.734;2022-07-12T10:07:06;23.90;99.90
57652;DHT22;43480;53.116;6.734;2022-07-12T10:09:32;24.00;99.90
57652;DHT22;43480;53.116;6.734;2022-07-12T10:11:58;24.10;99.90
57652;DHT22;43480;53.116;6.734;2022-07-12T10:14:23;24.20;99.90
57652;DHT22;43480;53.116;6.734;2022-07-12T10:16:52;24.30;99.90
57652;DHT22;43480;53.116;6.734;2022-07-12T10:19:28;24.50;99.90
57652;DHT22;43480;53.116;6.734;2022-07-12T10:21:56;24.80;99.90
57652;DHT22;43480;53.116;6.734;2022-07-12T10:35:00;24.80;99.90
57652;DHT22;43480;53.116;6.734;2022-07-12T10:37:26;24.70;99.90
57652;DHT22;43480;53.116;6.734;2022-07-12T10:40:11;24.60;99.90
57652;DHT22;43480;53.116;6.734;2022-07-12T10:42:38;24.60;99.90
57652;DHT22;43480;53.116;6.734;2022-07-12T10:45:13;24.60;99.90
57652;DHT22;43480;53.116;6.734;2022-07-12T10:47:58;24.70;99.90
57652;DHT22;43480;53.116;6.734;2022-07-12T10:58:30;25.30;99.90
57652;DHT22;43480;53.116;6.734;2022-07-12T11:00:55;25.60;99.90
57652;DHT22;43480;53.116;6.734;2022-07-12T11:03:21;25.80;99.90
57652;DHT22;43480;53.116;6.734;2022-07-12T11:05:47;26.00;99.90
57652;DHT22;43480;53.116;6.734;2022-07-12T11:08:16;26.20;99.90
57652;DHT22;43480;53.116;6.734;2022-07-12T11:10:54;26.30;99.90
57652;DHT22;43480;53.116;6.734;2022-07-12T11:13:20;26.20;99.90
57652;DHT22;43480;53.116;6.734;2022-07-12T11:15:59;26.20;99.90
57652;DHT22;43480;53.116;6.734;2022-07-12T11:18:31;26.30;99.90
57652;DHT22;43480;53.116;6.734;2022-07-12T11:20:58;26.40;99.70
57652;DHT22;43480;53.116;6.734;2022-07-12T11:23:24;26.40;99.90
57652;DHT22;43480;53.116;6.734;2022-07-12T11:25:50;26.60;99.90
57652;DHT22;43480;53.116;6.734;2022-07-12T11:28:16;26.60;99.90
57652;DHT22;43480;53.116;6.734;2022-07-12T11:30:48;26.70;99.50
57652;DHT22;43480;53.116;6.734;2022-07-12T11:33:14;26.80;98.70
57652;DHT22;43480;53.116;6.734;2022-07-12T11:35:40;26.80;98.60
57652;DHT22;43480;53.116;6.734;2022-07-12T11:38:08;26.70;99.90
57652;DHT22;43480;53.116;6.734;2022-07-12T11:40:34;26.70;98.20
57652;DHT22;43480;53.116;6.734;2022-07-12T11:43:00;26.60;97.70
57652;DHT22;43480;53.116;6.734;2022-07-12T11:45:29;26.60;97.20
57652;DHT22;43480;53.116;6.734;2022-07-12T11:47:55;26.50;99.90
57652;DHT22;43480;53.116;6.734;2022-07-12T11:50:21;26.50;99.90
57652;DHT22;43480;53.116;6.734;2022-07-12T11:52:47;26.50;99.90
57652;DHT22;43480;53.116;6.734;2022-07-12T11:55:13;26.60;99.90
57652;DHT22;43480;53.116;6.734;2022-07-12T11:57:38;26.70;99.90
57652;DHT22;43480;53.116;6.734;2022-07-12T12:02:38;27.20;98.70
57652;DHT22;43480;53.116;6.734;2022-07-12T12:05:04;27.60;97.40
57652;DHT22;43480;53.116;6.734;2022-07-12T12:07:30;27.90;95.40
57652;DHT22;43480;53.116;6.734;2022-07-12T12:09:59;28.10;97.00
57652;DHT22;43480;53.116;6.734;2022-07-12T12:12:25;28.20;96.40
57652;DHT22;43480;53.116;6.734;2022-07-12T12:14:51;28.40;97.20
57652;DHT22;43480;53.116;6.734;2022-07-12T12:17:16;28.40;86.70
57652;DHT22;43480;53.116;6.734;2022-07-12T12:19:42;28.40;87.50
57652;DHT22;43480;53.116;6.734;2022-07-12T12:22:29;28.70;93.50
57652;DHT22;43480;53.116;6.734;2022-07-12T12:25:00;29.00;96.10
57652;DHT22;43480;53.116;6.734;2022-07-12T12:27:26;29.20;83.10
57652;DHT22;43480;53.116;6.734;2022-07-12T12:29:52;29.20;84.00
57652;DHT22;43480;53.116;6.734;2022-07-12T12:32:18;29.20;85.40
57652;DHT22;43480;53.116;6.734;2022-07-12T12:37:28;29.10;91.60
57652;DHT22;43480;53.116;6.734;2022-07-12T12:39:53;29.30;93.10
57652;DHT22;43480;53.116;6.734;2022-07-12T12:42:25;29.50;76.20
57652;DHT22;43480;53.116;6.734;2022-07-12T12:44:51;29.70;85.20
57652;DHT22;43480;53.116;6.734;2022-07-12T12:47:16;30.00;90.60
57652;DHT22;43480;53.116;6.734;2022-07-12T12:49:57;30.20;81.10
57652;DHT22;43480;53.116;6.734;2022-07-12T12:52:25;30.40;91.90
57652;DHT22;43480;53.116;6.734;2022-07-12T12:54:52;30.30;55.70
57652;DHT22;43480;53.116;6.734;2022-07-12T12:57:17;30.30;61.60
57652;DHT22;43480;53.116;6.734;2022-07-12T12:59:43;30.20;62.30
57652;DHT22;43480;53.116;6.734;2022-07-12T13:02:08;30.30;60.40
57652;DHT22;43480;53.116;6.734;2022-07-12T13:04:35;30.60;70.00
57652;DHT22;43480;53.116;6.734;2022-07-12T13:07:01;30.60;63.50
57652;DHT22;43480;53.116;6.734;2022-07-12T13:09:27;30.50;61.40
57652;DHT22;43480;53.116;6.734;2022-07-12T13:11:54;30.30;55.10
57652;DHT22;43480;53.116;6.734;2022-07-12T13:14:19;30.10;61.30
57652;DHT22;43480;53.116;6.734;2022-07-12T13:16:45;30.30;60.90
57652;DHT22;43480;53.116;6.734;2022-07-12T13:19:10;30.20;59.40
57652;DHT22;43480;53.116;6.734;2022-07-12T13:21:36;30.20;62.40
57652;DHT22;43480;53.116;6.734;2022-07-12T13:24:01;30.10;57.10
57652;DHT22;43480;53.116;6.734;2022-07-12T13:26:27;29.90;63.10
57652;DHT22;43480;53.116;6.734;2022-07-12T13:28:53;29.80;66.60
57652;DHT22;43480;53.116;6.734;2022-07-12T13:31:19;29.70;58.50
57652;DHT22;43480;53.116;6.734;2022-07-12T13:33:45;29.80;62.90
57652;DHT22;43480;53.116;6.734;2022-07-12T13:36:10;29.80;60.60
57652;DHT22;43480;53.116;6.734;2022-07-12T13:38:36;29.80;57.90
57652;DHT22;43480;53.116;6.734;2022-07-12T13:41:01;29.60;59.50
57652;DHT22;43480;53.116;6.734;2022-07-12T13:43:27;29.40;60.20
57652;DHT22;43480;53.116;6.734;2022-07-12T13:45:52;29.10;60.00
57652;DHT22;43480;53.116;6.734;2022-07-12T13:48:18;28.90;62.60
57652;DHT22;43480;53.116;6.734;2022-07-12T13:50:44;28.70;65.00
57652;DHT22;43480;53.116;6.734;2022-07-12T13:53:09;28.60;62.50
57652;DHT22;43480;53.116;6.734;2022-07-12T13:55:35;28.50;78.70
57652;DHT22;43480;53.116;6.734;2022-07-12T13:58:02;28.40;82.20
57652;DHT22;43480;53.116;6.734;2022-07-12T14:00:28;28.30;79.70
57652;DHT22;43480;53.116;6.734;2022-07-12T14:02:53;28.20;90.10
57652;DHT22;43480;53.116;6.734;2022-07-12T14:05:19;28.20;74.20
57652;DHT22;43480;53.116;6.734;2022-07-12T14:07:45;28.10;83.50
57652;DHT22;43480;53.116;6.734;2022-07-12T14:10:11;28.10;77.80
57652;DHT22;43480;53.116;6.734;2022-07-12T14:12:37;28.20;79.80
57652;DHT22;43480;53.116;6.734;2022-07-12T14:15:03;28.30;81.30
57652;DHT22;43480;53.116;6.734;2022-07-12T14:17:39;28.30;73.70
57652;DHT22;43480;53.116;6.734;2022-07-12T14:20:05;28.30;68.70
57652;DHT22;43480;53.116;6.734;2022-07-12T14:22:31;28.30;71.40
57652;DHT22;43480;53.116;6.734;2022-07-12T14:24:56;28.20;70.60
57652;DHT22;43480;53.116;6.734;2022-07-12T14:27:22;28.10;79.80
57652;DHT22;43480;53.116;6.734;2022-07-12T14:29:47;27.90;72.30
57652;DHT22;43480;53.116;6.734;2022-07-12T14:32:13;27.70;76.80
57652;DHT22;43480;53.116;6.734;2022-07-12T14:34:39;27.60;76.50
57652;DHT22;43480;53.116;6.734;2022-07-12T14:37:04;27.40;75.10
57652;DHT22;43480;53.116;6.734;2022-07-12T14:39:30;27.30;81.10
57652;DHT22;43480;53.116;6.734;2022-07-12T14:41:55;27.20;86.40
57652;DHT22;43480;53.116;6.734;2022-07-12T14:44:21;27.10;85.00
57652;DHT22;43480;53.116;6.734;2022-07-12T14:46:50;27.00;88.40
57652;DHT22;43480;53.116;6.734;2022-07-12T14:49:18;27.10;90.60
57652;DHT22;43480;53.116;6.734;2022-07-12T14:51:44;27.10;92.60
57652;DHT22;43480;53.116;6.734;2022-07-12T14:54:10;27.10;85.80
57652;DHT22;43480;53.116;6.734;2022-07-12T14:56:36;27.10;83.00
57652;DHT22;43480;53.116;6.734;2022-07-12T14:59:01;27.20;90.50
57652;DHT22;43480;53.116;6.734;2022-07-12T15:01:27;27.30;88.60
57652;DHT22;43480;53.116;6.734;2022-07-12T15:03:52;27.30;79.10
57652;DHT22;43480;53.116;6.734;2022-07-12T15:06:18;27.30;84.80
57652;DHT22;43480;53.116;6.734;2022-07-12T15:08:43;27.20;82.30
57652;DHT22;43480;53.116;6.734;2022-07-12T15:11:09;27.10;85.30
57652;DHT22;43480;53.116;6.734;2022-07-12T15:13:34;27.00;86.00
57652;DHT22;43480;53.116;6.734;2022-07-12T15:16:00;26.90;94.80
57652;DHT22;43480;53.116;6.734;2022-07-12T15:18:26;26.80;93.10
57652;DHT22;43480;53.116;6.734;2022-07-12T15:20:51;26.70;93.50
57652;DHT22;43480;53.116;6.734;2022-07-12T15:23:17;26.70;90.20
57652;DHT22;43480;53.116;6.734;2022-07-12T15:25:43;26.60;90.30
57652;DHT22;43480;53.116;6.734;2022-07-12T15:28:08;26.50;93.60
57652;DHT22;43480;53.116;6.734;2022-07-12T15:30:34;26.50;95.20
57652;DHT22;43480;53.116;6.734;2022-07-12T15:33:00;26.40;84.80
57652;DHT22;43480;53.116;6.734;2022-07-12T15:35:25;26.40;91.40
57652;DHT22;43480;53.116;6.734;2022-07-12T15:37:51;26.40;87.60
57652;DHT22;43480;53.116;6.734;2022-07-12T15:40:16;26.30;91.20
57652;DHT22;43480;53.116;6.734;2022-07-12T15:42:42;26.30;92.90
57652;DHT22;43480;53.116;6.734;2022-07-12T15:45:07;26.20;92.60
57652;DHT22;43480;53.116;6.734;2022-07-12T15:47:33;26.10;90.70
57652;DHT22;43480;53.116;6.734;2022-07-12T15:49:59;26.10;92.80